createdAt,value
2022-10-15T00:02:11.858Z,15.10
2022-10-15T00:07:23.028Z,15.00
2022-10-15T00:12:44.703Z,15.10
2022-10-15T00:17:50.351Z,15.00
2022-10-15T00:22:58.782Z,15.00
2022-10-15T00:28:29.413Z,14.90
2022-10-15T00:33:40.565Z,14.90
2022-10-15T00:38:47.446Z,14.90
2022-10-15T00:44:06.188Z,14.80
2022-10-15T00:49:28.868Z,14.70
2022-10-15T00:54:50.474Z,14.60
2022-10-15T01:00:10.582Z,14.60
2022-10-15T01:05:18.954Z,14.50
2022-10-15T01:10:45.302Z,14.50
2022-10-15T01:15:56.358Z,14.50
2022-10-15T01:21:17.485Z,14.50
2022-10-15T01:26:48.717Z,14.50
2022-10-15T01:32:13.519Z,14.50
2022-10-15T01:37:24.358Z,14.50
2022-10-15T01:42:44.095Z,14.40
2022-10-15T01:48:00.643Z,14.40
2022-10-15T01:53:08.631Z,14.40
2022-10-15T01:58:22.468Z,14.50
2022-10-15T02:03:29.293Z,14.50
2022-10-15T02:08:45.766Z,14.50
2022-10-15T02:14:02.713Z,14.50
2022-10-15T02:19:18.580Z,14.50
2022-10-15T02:24:34.201Z,14.50
2022-10-15T02:29:56.368Z,14.50
2022-10-15T02:35:01.953Z,14.40
2022-10-15T02:40:08.046Z,14.40
2022-10-15T02:45:17.157Z,14.30
2022-10-15T02:55:48.809Z,14.30
2022-10-15T03:00:54.122Z,14.40
2022-10-15T03:06:01.157Z,14.40
2022-10-15T03:11:08.605Z,14.40
2022-10-15T03:16:12.058Z,14.40
2022-10-15T03:21:16.937Z,14.40
2022-10-15T03:26:19.445Z,14.50
2022-10-15T03:31:21.958Z,14.50
2022-10-15T03:36:28.677Z,14.50
2022-10-15T03:41:31.178Z,14.50
2022-10-15T03:46:36.832Z,14.50
2022-10-15T03:51:40.791Z,14.50
2022-10-15T03:56:43.196Z,14.50
2022-10-15T04:01:45.696Z,14.50
2022-10-15T04:06:52.811Z,14.50
2022-10-15T04:11:55.253Z,14.50
2022-10-15T04:17:00.549Z,14.50
2022-10-15T04:22:13.781Z,14.50
2022-10-15T04:33:03.230Z,14.50
2022-10-15T04:38:09.842Z,14.50
2022-10-15T04:43:14.216Z,14.60
2022-10-15T04:48:16.651Z,14.60
2022-10-15T04:53:21.255Z,14.60
2022-10-15T04:58:23.752Z,14.60
2022-10-15T05:03:26.407Z,14.60
2022-10-15T05:08:34.585Z,14.50
2022-10-15T05:13:37.109Z,14.60
2022-10-15T05:18:40.241Z,14.50
2022-10-15T05:23:44.370Z,14.60
2022-10-15T05:28:55.244Z,14.60
2022-10-15T05:34:05.886Z,14.60
2022-10-15T05:39:15.925Z,14.60
2022-10-15T05:44:30.283Z,14.60
2022-10-15T05:49:32.902Z,14.70
2022-10-15T05:54:37.018Z,14.70
2022-10-15T05:59:42.491Z,14.80
2022-10-15T06:04:45.176Z,14.80
2022-10-15T06:09:49.277Z,14.80
2022-10-15T06:14:51.861Z,14.80
2022-10-15T06:20:03.595Z,14.80
2022-10-15T06:25:14.229Z,14.70
2022-10-15T06:30:17.083Z,14.70
2022-10-15T06:35:21.950Z,14.70
2022-10-15T06:40:28.402Z,14.70
2022-10-15T06:45:30.960Z,14.70
2022-10-15T06:50:37.597Z,14.70
2022-10-15T06:55:44.827Z,14.70
2022-10-15T07:00:46.987Z,14.80
2022-10-15T07:05:55.359Z,14.80
2022-10-15T07:11:05.319Z,14.80
2022-10-15T07:16:59.644Z,14.80
2022-10-15T07:21:44.901Z,14.70
2022-10-15T07:27:08.206Z,14.80
2022-10-15T07:32:22.867Z,14.80
2022-10-15T07:37:28.752Z,14.80
2022-10-15T07:42:32.842Z,14.80
2022-10-15T07:47:42.104Z,14.90
2022-10-15T07:52:56.318Z,15.00
2022-10-15T07:58:00.832Z,15.10
2022-10-15T08:03:07.901Z,15.20
2022-10-15T08:08:13.767Z,15.30
2022-10-15T08:13:17.741Z,15.40
2022-10-15T08:18:20.251Z,15.50
2022-10-15T08:23:22.588Z,15.60
2022-10-15T08:28:29.847Z,15.70
2022-10-15T08:33:32.828Z,15.90
2022-10-15T08:38:35.742Z,16.00
2022-10-15T08:43:42.432Z,16.30
2022-10-15T08:48:52.240Z,16.50
2022-10-15T08:53:58.268Z,16.80
2022-10-15T08:59:11.560Z,17.10
2022-10-15T09:04:25.052Z,17.30
2022-10-15T09:09:34.476Z,17.50
2022-10-15T09:14:43.901Z,17.60
2022-10-15T09:19:47.950Z,17.80
2022-10-15T09:24:50.684Z,18.20
2022-10-15T09:30:03.595Z,18.70
2022-10-15T09:35:16.033Z,19.30
2022-10-15T09:40:32.388Z,19.90
2022-10-15T09:45:38.174Z,20.30
2022-10-15T09:50:45.158Z,20.80
2022-10-15T09:55:49.123Z,21.10
2022-10-15T10:01:02.853Z,21.50
2022-10-15T10:06:08.950Z,21.60
2022-10-15T10:11:12.665Z,21.60
2022-10-15T10:16:19.385Z,21.50
2022-10-15T10:21:24.230Z,21.40
2022-10-15T10:26:27.078Z,21.60
2022-10-15T10:31:35.407Z,21.50
2022-10-15T10:36:40.679Z,21.30
2022-10-15T10:41:50.824Z,21.10
2022-10-15T10:47:11.451Z,20.90
2022-10-15T10:52:26.293Z,20.70
2022-10-15T10:57:53.797Z,20.50
2022-10-15T11:03:00.359Z,20.30
2022-10-15T11:08:13.684Z,20.00
2022-10-15T11:13:40.469Z,19.80
2022-10-15T11:19:18.750Z,19.60
2022-10-15T11:24:37.862Z,19.50
2022-10-15T11:30:05.059Z,19.40
2022-10-15T11:35:52.042Z,19.20
2022-10-15T11:41:27.407Z,19.10
2022-10-15T11:47:04.496Z,19.00
2022-10-15T11:52:42.403Z,19.10
2022-10-15T11:57:50.193Z,19.10
2022-10-15T12:02:55.169Z,19.20
2022-10-15T12:13:45.359Z,19.00
2022-10-15T12:19:31.475Z,19.00
2022-10-15T12:25:02.569Z,18.90
2022-10-15T12:30:26.970Z,18.90
2022-10-15T12:35:36.174Z,18.90
2022-10-15T12:47:11.301Z,18.90
2022-10-15T12:52:52.774Z,18.90
2022-10-15T12:58:55.434Z,18.90
2022-10-15T13:04:00.515Z,19.00
2022-10-15T13:15:25.378Z,19.10
2022-10-15T13:20:36.930Z,19.00
2022-10-15T13:25:39.419Z,19.00
2022-10-15T13:30:49.627Z,18.90
2022-10-15T13:35:53.841Z,18.90
2022-10-15T13:40:57.145Z,18.90
2022-10-15T13:46:01.086Z,19.00
2022-10-15T13:51:11.007Z,19.00
2022-10-15T13:56:27.222Z,19.00
2022-10-15T14:01:34.796Z,18.90
2022-10-15T14:06:38.865Z,18.90
2022-10-15T14:11:41.537Z,18.90
2022-10-15T14:16:48.250Z,18.80
2022-10-15T14:21:57.472Z,18.60
2022-10-15T14:27:05.531Z,18.40
2022-10-15T14:32:24.206Z,18.10
2022-10-15T14:37:41.040Z,17.90
2022-10-15T14:42:45.407Z,17.80
2022-10-15T14:47:50.509Z,17.70
2022-10-15T14:52:55.465Z,17.60
2022-10-15T14:57:58.427Z,17.60
2022-10-15T15:03:04.726Z,17.50
2022-10-15T15:08:10.601Z,17.50
2022-10-15T15:13:17.788Z,17.50
2022-10-15T15:18:20.897Z,17.50
2022-10-15T15:23:27.479Z,17.50
2022-10-15T15:28:30.614Z,17.50
2022-10-15T15:33:34.407Z,17.50
2022-10-15T15:38:38.661Z,17.50
2022-10-15T15:43:41.369Z,17.50
2022-10-15T15:48:43.823Z,17.50
2022-10-15T15:53:48.226Z,17.50
2022-10-15T15:58:51.487Z,17.50
2022-10-15T16:04:04.471Z,17.50
2022-10-15T16:09:11.571Z,17.60
2022-10-15T16:14:13.944Z,17.60
2022-10-15T16:19:17.734Z,17.70
2022-10-15T16:24:21.761Z,17.70
2022-10-15T16:29:24.291Z,17.80
2022-10-15T16:34:26.979Z,17.80
2022-10-15T16:39:30.901Z,17.80
2022-10-15T16:44:33.419Z,17.80
2022-10-15T16:55:26.947Z,17.90
2022-10-15T17:00:29.545Z,17.90
2022-10-15T17:05:32.495Z,17.80
2022-10-15T17:10:46.771Z,17.80
2022-10-15T17:15:49.139Z,17.70
2022-10-15T17:20:51.780Z,17.70
2022-10-15T17:25:55.995Z,17.70
2022-10-15T17:31:04.354Z,17.70
2022-10-15T17:36:08.987Z,17.70
2022-10-15T17:41:16.305Z,17.70
2022-10-15T17:46:43.115Z,17.70
2022-10-15T17:57:43.546Z,17.70
2022-10-15T18:02:49.295Z,17.70
2022-10-15T18:07:52.022Z,17.60
2022-10-15T18:12:56.085Z,17.50
2022-10-15T18:17:59.110Z,17.40
2022-10-15T18:23:04.541Z,17.30
2022-10-15T18:28:09.732Z,17.30
2022-10-15T18:33:12.533Z,17.20
2022-10-15T18:38:15.083Z,17.10
2022-10-15T18:43:19.710Z,17.00
2022-10-15T18:48:22.352Z,17.00
2022-10-15T18:53:24.775Z,17.00
2022-10-15T18:58:28.994Z,16.90
2022-10-15T19:03:31.485Z,16.80
2022-10-15T19:08:34.126Z,16.80
2022-10-15T19:13:38.353Z,16.70
2022-10-15T19:18:41.130Z,16.70
2022-10-15T19:23:43.586Z,16.60
2022-10-15T19:28:47.761Z,16.60
2022-10-15T19:33:51.123Z,16.60
2022-10-15T19:38:55.345Z,16.50
2022-10-15T19:43:59.968Z,16.50
2022-10-15T19:49:03.167Z,16.50
2022-10-15T19:54:06.400Z,16.40
2022-10-15T19:59:13.841Z,16.40
2022-10-15T20:04:17.175Z,16.30
2022-10-15T20:09:23.661Z,16.30
2022-10-15T20:14:27.880Z,16.30
2022-10-15T20:19:31.261Z,16.20
2022-10-15T20:24:36.341Z,16.10
2022-10-15T20:29:40.476Z,16.10
2022-10-15T20:34:43.117Z,16.10
2022-10-15T20:39:46.210Z,16.00
2022-10-15T20:44:50.377Z,16.00
2022-10-15T20:49:54.149Z,16.00
2022-10-15T20:54:56.927Z,16.00
2022-10-15T21:00:00.871Z,16.00
2022-10-15T21:05:06.734Z,15.90
2022-10-15T21:10:17.640Z,15.90
2022-10-15T21:15:38.210Z,15.90
2022-10-15T21:20:40.814Z,15.90
2022-10-15T21:25:43.505Z,15.80
2022-10-15T21:30:59.704Z,15.80
2022-10-15T21:36:10.821Z,15.80
2022-10-15T21:41:16.757Z,15.80
2022-10-15T21:46:30.785Z,15.70
2022-10-15T21:51:41.619Z,15.70
2022-10-15T21:56:48.603Z,15.70
2022-10-15T22:02:00.134Z,15.70
2022-10-15T22:07:04.946Z,15.60
2022-10-15T22:12:07.642Z,15.60
2022-10-15T22:17:13.604Z,15.60
2022-10-15T22:22:16.221Z,15.60
2022-10-15T22:27:21.067Z,15.60
2022-10-15T22:32:28.973Z,15.60
2022-10-15T22:37:37.744Z,15.50
2022-10-15T22:42:42.029Z,15.50
2022-10-15T22:47:55.575Z,15.50
2022-10-15T22:53:07.018Z,15.50
2022-10-15T22:58:15.452Z,15.50
2022-10-15T23:03:40.831Z,15.50
2022-10-15T23:08:43.955Z,15.60
2022-10-15T23:13:47.821Z,15.60
2022-10-15T23:19:01.976Z,15.60
2022-10-15T23:24:05.577Z,15.60
2022-10-15T23:29:15.468Z,15.60
2022-10-15T23:34:26.837Z,15.60
2022-10-15T23:39:29.577Z,15.60
2022-10-15T23:44:42.992Z,15.50
2022-10-15T23:49:53.115Z,15.60
2022-10-15T23:54:59.177Z,15.60
